createdAt,value
2017-09-05T00:02:19.702Z,9.30
2017-09-05T00:04:48.065Z,9.20
2017-09-05T00:07:22.342Z,9.20
2017-09-05T00:12:41.939Z,9.00
2017-09-05T00:15:15.870Z,8.90
2017-09-05T00:17:46.270Z,8.80
2017-09-05T00:20:15.468Z,8.80
2017-09-05T00:22:44.123Z,8.70
2017-09-05T00:25:14.501Z,8.60
2017-09-05T00:27:43.922Z,8.50
2017-09-05T00:30:12.694Z,8.50
2017-09-05T00:32:41.530Z,8.40
2017-09-05T00:35:17.114Z,8.40
2017-09-05T00:37:52.677Z,8.30
2017-09-05T00:40:36.164Z,8.40
2017-09-05T00:43:07.688Z,8.40
2017-09-05T00:45:36.378Z,8.40
2017-09-05T00:48:05.924Z,8.30
2017-09-05T00:55:52.386Z,8.10
2017-09-05T01:01:06.074Z,8.00
2017-09-05T01:03:34.869Z,8.00
2017-09-05T01:06:10.861Z,7.90
2017-09-05T01:08:42.566Z,7.90
2017-09-05T01:11:11.338Z,7.90
2017-09-05T01:13:40.142Z,7.90
2017-09-05T01:16:08.990Z,7.90
2017-09-05T01:18:37.778Z,7.90
2017-09-05T01:21:11.860Z,7.90
2017-09-05T01:23:47.542Z,7.90
2017-09-05T01:29:01.273Z,7.90
2017-09-05T01:31:30.159Z,7.80
2017-09-05T01:33:59.060Z,7.90
2017-09-05T01:36:27.851Z,7.80
2017-09-05T01:38:57.575Z,7.90
2017-09-05T01:41:26.346Z,7.90
2017-09-05T01:43:56.090Z,7.90
2017-09-05T01:46:24.895Z,7.90
2017-09-05T01:50:29.179Z,7.90
2017-09-05T01:53:01.152Z,7.90
2017-09-05T01:55:31.590Z,7.90
2017-09-05T01:58:00.406Z,7.90
2017-09-05T02:00:31.171Z,7.90
2017-09-05T02:03:02.924Z,7.90
2017-09-05T02:06:21.627Z,8.00
2017-09-05T02:08:56.542Z,8.00
2017-09-05T02:11:25.337Z,7.90
2017-09-05T02:13:54.138Z,7.90
2017-09-05T02:16:23.914Z,7.80
2017-09-05T02:18:56.958Z,7.80
2017-09-05T02:21:30.442Z,7.70
2017-09-05T02:26:32.664Z,7.60
2017-09-05T02:29:04.792Z,7.60
2017-09-05T02:34:23.257Z,7.50
2017-09-05T02:43:25.034Z,7.30
2017-09-05T02:45:54.044Z,7.20
2017-09-05T02:48:23.898Z,7.20
2017-09-05T02:50:52.819Z,7.10
2017-09-05T02:53:29.018Z,7.10
2017-09-05T02:56:01.783Z,7.10
2017-09-05T02:58:39.905Z,7.10
2017-09-05T03:01:17.273Z,7.10
2017-09-05T03:03:54.290Z,7.10
2017-09-05T03:06:38.066Z,7.10
2017-09-05T03:09:40.988Z,7.00
2017-09-05T03:20:46.768Z,7.00
2017-09-05T03:23:32.729Z,6.90
2017-09-05T03:26:11.297Z,6.90
2017-09-05T03:31:20.164Z,6.90
2017-09-05T03:33:51.131Z,6.90
2017-09-05T03:36:20.470Z,6.90
2017-09-05T03:38:53.162Z,6.80
2017-09-05T03:41:24.967Z,6.80
2017-09-05T03:43:53.711Z,6.80
2017-09-05T03:46:22.651Z,6.80
2017-09-05T03:51:25.687Z,6.80
2017-09-05T03:53:55.417Z,6.80
2017-09-05T03:56:23.950Z,6.80
2017-09-05T04:01:32.209Z,6.70
2017-09-05T04:06:55.873Z,6.70
2017-09-05T04:09:28.823Z,6.60
2017-09-05T04:14:49.897Z,6.50
2017-09-05T04:17:27.203Z,6.60
2017-09-05T04:19:59.128Z,6.50
2017-09-05T04:22:27.958Z,6.50
2017-09-05T04:24:56.815Z,6.40
2017-09-05T04:27:25.738Z,6.50
2017-09-05T04:29:54.651Z,6.50
2017-09-05T04:35:15.756Z,6.50
2017-09-05T04:37:44.642Z,6.50
2017-09-05T04:45:50.800Z,6.60
2017-09-05T04:51:15.883Z,6.70
2017-09-05T04:53:46.578Z,6.70
2017-09-05T04:56:22.330Z,6.80
2017-09-05T05:04:30.640Z,7.10
2017-09-05T05:07:08.904Z,7.20
2017-09-05T05:09:37.742Z,7.20
2017-09-05T05:12:15.038Z,7.20
2017-09-05T05:14:46.877Z,7.30
2017-09-05T05:17:15.679Z,7.40
2017-09-05T05:19:45.555Z,7.40
2017-09-05T05:22:14.513Z,7.40
2017-09-05T05:24:43.350Z,7.60
2017-09-05T05:27:12.219Z,7.60
2017-09-05T05:29:40.986Z,7.80
2017-09-05T05:32:09.807Z,8.00
2017-09-05T05:34:38.604Z,8.20
2017-09-05T05:37:07.327Z,8.40
2017-09-05T05:39:39.437Z,8.60
2017-09-05T05:42:08.662Z,8.90
2017-09-05T05:44:37.494Z,9.10
2017-09-05T05:47:06.258Z,9.20
2017-09-05T05:49:34.982Z,9.60
2017-09-05T05:52:03.714Z,9.80
2017-09-05T05:54:32.500Z,10.20
2017-09-05T05:57:01.886Z,10.50
2017-09-05T05:59:30.643Z,10.80
2017-09-05T06:01:59.234Z,10.90
2017-09-05T06:04:47.238Z,11.30
2017-09-05T06:07:24.081Z,11.60
2017-09-05T06:09:59.432Z,11.60
2017-09-05T06:12:29.510Z,11.70
2017-09-05T06:15:01.795Z,12.00
2017-09-05T06:17:32.108Z,12.40
2017-09-05T06:20:03.617Z,12.90
2017-09-05T06:22:32.152Z,13.60
2017-09-05T06:25:00.683Z,14.10
2017-09-05T06:27:29.220Z,14.50
2017-09-05T06:29:57.751Z,15.20
2017-09-05T06:32:26.333Z,15.70
2017-09-05T06:35:03.429Z,16.20
2017-09-05T06:37:31.899Z,16.60
2017-09-05T06:40:03.303Z,16.50
2017-09-05T06:42:32.186Z,16.50
2017-09-05T06:45:01.871Z,16.50
2017-09-05T06:47:30.419Z,16.60
2017-09-05T06:50:00.732Z,16.60
2017-09-05T06:52:33.517Z,16.70
2017-09-05T06:55:05.596Z,16.70
2017-09-05T06:57:35.763Z,16.70
2017-09-05T07:00:03.989Z,16.60
2017-09-05T07:02:35.424Z,16.70
2017-09-05T07:05:05.574Z,17.20
2017-09-05T07:07:36.163Z,17.80
2017-09-05T07:10:04.702Z,18.40
2017-09-05T07:12:37.948Z,19.20
2017-09-05T07:15:12.581Z,19.50
2017-09-05T07:17:41.131Z,20.10
2017-09-05T07:22:46.329Z,21.50
2017-09-05T07:25:14.818Z,22.20
2017-09-05T07:27:43.343Z,23.00
2017-09-05T07:30:11.787Z,23.70
2017-09-05T07:32:40.246Z,24.50
2017-09-05T07:35:08.909Z,24.70
2017-09-05T07:37:38.498Z,25.80
2017-09-05T07:40:08.250Z,27.10
2017-09-05T07:42:40.363Z,27.20
2017-09-05T07:45:08.823Z,26.90
2017-09-05T07:47:37.295Z,27.60
2017-09-05T07:50:05.877Z,27.20
2017-09-05T07:52:34.334Z,27.90
2017-09-05T07:55:09.732Z,28.40
2017-09-05T07:57:39.489Z,29.10
2017-09-05T08:00:10.873Z,29.70
2017-09-05T08:02:44.048Z,30.00
2017-09-05T08:07:45.639Z,29.80
2017-09-05T08:10:14.300Z,29.60
2017-09-05T08:12:42.781Z,30.30
2017-09-05T08:15:14.865Z,30.80
2017-09-05T08:17:43.381Z,30.80
2017-09-05T08:20:11.875Z,30.60
2017-09-05T08:25:13.345Z,31.60
2017-09-05T08:27:43.331Z,32.20
2017-09-05T08:30:13.324Z,32.60
2017-09-05T08:32:43.775Z,31.80
2017-09-05T08:35:25.430Z,31.40
2017-09-05T08:37:54.645Z,31.50
2017-09-05T08:40:23.170Z,31.50
2017-09-05T08:42:53.221Z,32.60
2017-09-05T08:45:22.226Z,32.10
2017-09-05T08:47:50.665Z,32.60
2017-09-05T08:50:19.118Z,32.60
2017-09-05T08:52:47.672Z,33.10
2017-09-05T08:55:16.137Z,34.00
2017-09-05T08:57:44.556Z,34.20
2017-09-05T09:00:13.002Z,33.90
2017-09-05T09:02:41.422Z,34.50
2017-09-05T09:05:09.846Z,33.30
2017-09-05T09:07:38.285Z,32.30
2017-09-05T09:10:06.729Z,32.40
2017-09-05T09:12:35.183Z,32.60
2017-09-05T09:15:03.633Z,32.60
2017-09-05T09:17:32.054Z,33.40
2017-09-05T09:20:03.733Z,33.40
2017-09-05T09:22:39.894Z,33.60
2017-09-05T09:25:10.222Z,33.30
2017-09-05T09:27:46.651Z,33.30
2017-09-05T09:30:15.129Z,34.70
2017-09-05T09:32:43.547Z,34.30
2017-09-05T09:35:12.037Z,33.50
2017-09-05T09:37:40.474Z,34.00
2017-09-05T09:40:08.906Z,33.70
2017-09-05T09:42:38.158Z,33.90
2017-09-05T09:45:09.046Z,34.50
2017-09-05T09:47:37.510Z,34.80
2017-09-05T09:50:07.808Z,35.20
2017-09-05T09:52:36.233Z,34.30
2017-09-05T09:55:07.858Z,34.50
2017-09-05T09:57:36.290Z,34.40
2017-09-05T10:00:04.431Z,34.00
2017-09-05T10:05:22.587Z,34.20
2017-09-05T10:07:53.324Z,33.60
2017-09-05T10:10:34.275Z,32.60
2017-09-05T10:15:48.268Z,33.80
2017-09-05T10:21:12.147Z,34.70
2017-09-05T10:26:20.338Z,35.00
2017-09-05T10:28:48.818Z,34.50
2017-09-05T10:31:18.215Z,35.20
2017-09-05T10:36:25.916Z,35.50
2017-09-05T10:38:55.606Z,35.50
2017-09-05T10:43:59.875Z,34.00
2017-09-05T10:46:35.283Z,33.40
2017-09-05T10:49:09.111Z,33.30
2017-09-05T10:51:41.368Z,33.70
2017-09-05T10:54:13.832Z,34.40
2017-09-05T10:56:47.882Z,34.80
2017-09-05T10:59:17.149Z,35.10
2017-09-05T11:01:47.153Z,35.50
2017-09-05T11:04:16.162Z,35.70
2017-09-05T11:06:45.053Z,35.60
2017-09-05T11:09:14.829Z,34.50
2017-09-05T11:11:45.064Z,32.70
2017-09-05T11:14:13.519Z,33.60
2017-09-05T11:16:41.966Z,34.30
2017-09-05T11:19:10.558Z,33.50
2017-09-05T11:21:38.998Z,33.80
2017-09-05T11:24:07.409Z,34.30
2017-09-05T11:26:35.877Z,35.10
2017-09-05T11:29:05.062Z,34.10
2017-09-05T11:31:33.500Z,34.10
2017-09-05T11:34:02.013Z,34.10
2017-09-05T11:36:30.436Z,33.40
2017-09-05T11:38:58.853Z,33.30
2017-09-05T11:41:27.104Z,34.10
2017-09-05T11:43:55.513Z,34.50
2017-09-05T11:46:23.926Z,34.30
2017-09-05T11:48:52.354Z,33.70
2017-09-05T11:51:20.787Z,33.70
2017-09-05T11:53:56.154Z,33.80
2017-09-05T11:56:28.003Z,33.60
2017-09-05T11:58:56.449Z,33.50
2017-09-05T12:01:24.852Z,34.10
2017-09-05T12:03:53.253Z,34.60
2017-09-05T12:06:21.690Z,34.40
2017-09-05T12:08:50.102Z,32.90
2017-09-05T12:11:18.511Z,32.30
2017-09-05T12:13:46.986Z,33.10
2017-09-05T12:16:15.454Z,33.10
2017-09-05T12:18:43.873Z,33.20
2017-09-05T12:21:12.335Z,33.50
2017-09-05T12:23:40.748Z,33.10
2017-09-05T12:26:09.204Z,32.80
2017-09-05T12:28:37.669Z,33.40
2017-09-05T12:31:05.472Z,33.00
2017-09-05T12:33:33.557Z,32.90
2017-09-05T12:36:05.124Z,32.40
2017-09-05T12:38:36.167Z,32.40
2017-09-05T12:41:03.990Z,32.80
2017-09-05T12:43:40.848Z,32.50
2017-09-05T12:46:09.278Z,32.60
2017-09-05T12:48:37.739Z,31.90
2017-09-05T12:51:06.189Z,31.90
2017-09-05T12:53:35.400Z,31.70
2017-09-05T12:56:03.995Z,31.60
2017-09-05T12:58:32.447Z,32.20
2017-09-05T13:01:00.885Z,31.60
2017-09-05T13:03:29.421Z,31.50
2017-09-05T13:05:57.861Z,31.60
2017-09-05T13:08:26.428Z,30.50
2017-09-05T13:10:54.876Z,29.80
2017-09-05T13:13:23.315Z,30.10
2017-09-05T13:15:51.817Z,29.80
2017-09-05T13:18:20.278Z,29.70
2017-09-05T13:20:54.485Z,29.70
2017-09-05T13:23:30.770Z,30.10
2017-09-05T13:26:00.799Z,29.80
2017-09-05T13:28:30.810Z,29.60
2017-09-05T13:30:59.409Z,29.00
2017-09-05T13:33:27.993Z,28.80
2017-09-05T13:36:03.248Z,28.50
2017-09-05T13:38:35.280Z,27.80
2017-09-05T13:41:07.207Z,27.90
2017-09-05T13:43:35.675Z,28.20
2017-09-05T13:46:05.421Z,28.00
2017-09-05T13:48:34.032Z,27.50
2017-09-05T13:51:02.542Z,26.80
2017-09-05T13:53:31.064Z,26.60
2017-09-05T13:55:59.566Z,26.40
2017-09-05T13:58:28.078Z,26.30
2017-09-05T14:00:56.549Z,26.40
2017-09-05T14:03:25.075Z,26.10
2017-09-05T14:05:53.529Z,26.50
2017-09-05T14:08:21.998Z,26.20
2017-09-05T14:10:50.494Z,25.50
2017-09-05T14:13:18.966Z,25.20
2017-09-05T14:15:47.814Z,25.50
2017-09-05T14:18:16.284Z,25.40
2017-09-05T14:20:45.791Z,25.20
2017-09-05T14:26:06.725Z,24.80
2017-09-05T14:28:35.282Z,24.80
2017-09-05T14:31:03.885Z,24.90
2017-09-05T14:33:32.601Z,24.70
2017-09-05T14:36:01.187Z,24.50
2017-09-05T14:38:29.951Z,24.50
2017-09-05T14:40:59.008Z,24.30
2017-09-05T14:43:27.537Z,24.30
2017-09-05T14:45:56.133Z,24.40
2017-09-05T14:48:27.220Z,23.90
2017-09-05T14:50:56.822Z,23.30
2017-09-05T14:53:25.563Z,23.00
2017-09-05T14:55:54.037Z,23.00
2017-09-05T14:58:22.558Z,22.70
2017-09-05T15:00:51.033Z,22.40
2017-09-05T15:03:19.547Z,22.40
2017-09-05T15:05:48.067Z,22.40
2017-09-05T15:08:16.525Z,22.10
2017-09-05T15:10:44.984Z,21.90
2017-09-05T15:13:14.304Z,21.90
2017-09-05T15:15:42.787Z,21.90
2017-09-05T15:18:12.248Z,21.40
2017-09-05T15:20:40.843Z,21.40
2017-09-05T15:23:09.340Z,21.30
2017-09-05T15:25:37.907Z,21.30
2017-09-05T15:28:06.425Z,21.40
2017-09-05T15:30:35.150Z,21.50
2017-09-05T15:33:03.628Z,21.60
2017-09-05T15:35:32.369Z,21.40
2017-09-05T15:38:00.897Z,21.00
2017-09-05T15:40:29.636Z,20.50
2017-09-05T15:42:59.345Z,20.10
2017-09-05T15:45:28.878Z,20.10
2017-09-05T15:47:58.755Z,20.10
2017-09-05T15:50:27.505Z,20.10
2017-09-05T15:52:56.412Z,20.20
2017-09-05T15:58:19.281Z,20.00
2017-09-05T16:00:48.974Z,19.90
2017-09-05T16:03:17.754Z,19.70
2017-09-05T16:05:46.512Z,19.20
2017-09-05T16:08:15.121Z,18.90
2017-09-05T16:10:43.360Z,18.60
2017-09-05T16:13:12.105Z,18.40
2017-09-05T16:15:40.331Z,18.20
2017-09-05T16:18:09.221Z,17.90
2017-09-05T16:20:38.004Z,17.80
2017-09-05T16:23:09.342Z,17.70
2017-09-05T16:25:38.505Z,17.50
2017-09-05T16:28:07.696Z,17.40
2017-09-05T16:30:36.167Z,17.20
2017-09-05T16:33:05.434Z,17.10
2017-09-05T16:35:33.938Z,17.10
2017-09-05T16:38:02.677Z,16.90
2017-09-05T16:40:31.177Z,16.80
2017-09-05T16:42:59.897Z,16.70
2017-09-05T16:45:28.733Z,16.60
2017-09-05T16:47:57.216Z,16.70
2017-09-05T16:50:26.442Z,16.60
2017-09-05T16:52:59.628Z,16.40
2017-09-05T16:55:28.126Z,16.40
2017-09-05T16:57:56.638Z,16.20
2017-09-05T17:00:25.211Z,16.10
2017-09-05T17:03:15.213Z,15.90
2017-09-05T17:05:44.604Z,15.90
2017-09-05T17:08:13.122Z,15.80
2017-09-05T17:10:41.592Z,15.60
2017-09-05T17:13:10.102Z,15.60
2017-09-05T17:15:38.615Z,15.40
2017-09-05T17:18:07.077Z,15.30
2017-09-05T17:20:36.049Z,15.20
2017-09-05T17:23:04.534Z,15.10
2017-09-05T17:25:32.965Z,15.00
2017-09-05T17:28:01.417Z,14.90
2017-09-05T17:30:29.969Z,14.80
2017-09-05T17:32:58.421Z,14.60
2017-09-05T17:35:26.871Z,14.60
2017-09-05T17:37:55.336Z,14.40
2017-09-05T17:40:23.802Z,14.30
2017-09-05T17:42:52.277Z,14.10
2017-09-05T17:45:20.806Z,14.10
2017-09-05T17:47:50.074Z,14.00
2017-09-05T17:50:18.507Z,14.00
2017-09-05T17:52:46.951Z,13.90
2017-09-05T17:55:15.470Z,13.80
2017-09-05T17:57:43.969Z,13.70
2017-09-05T18:00:12.468Z,13.70
2017-09-05T18:02:41.107Z,13.50
2017-09-05T18:05:09.836Z,13.30
2017-09-05T18:07:38.362Z,13.30
2017-09-05T18:10:06.910Z,13.20
2017-09-05T18:12:35.242Z,13.10
2017-09-05T18:15:03.618Z,13.00
2017-09-05T18:17:32.187Z,12.90
2017-09-05T18:20:00.739Z,12.80
2017-09-05T18:22:29.334Z,12.80
2017-09-05T18:24:57.829Z,12.60
2017-09-05T18:27:26.402Z,12.60
2017-09-05T18:29:55.301Z,12.60
2017-09-05T18:32:23.801Z,12.60
2017-09-05T18:34:52.156Z,12.50
2017-09-05T18:37:20.471Z,12.40
2017-09-05T18:39:49.964Z,12.20
2017-09-05T18:42:18.538Z,12.20
2017-09-05T18:44:47.149Z,12.20
2017-09-05T18:47:15.735Z,12.20
2017-09-05T18:49:44.290Z,12.10
2017-09-05T18:52:12.854Z,12.00
2017-09-05T18:54:41.398Z,12.00
2017-09-05T18:57:09.924Z,12.00
2017-09-05T18:59:38.456Z,11.90
2017-09-05T19:02:06.990Z,11.90
2017-09-05T19:04:35.554Z,11.80
2017-09-05T19:07:04.110Z,11.80
2017-09-05T19:09:32.735Z,11.70
2017-09-05T19:12:01.239Z,11.70
2017-09-05T19:14:29.766Z,11.60
2017-09-05T19:16:58.390Z,11.50
2017-09-05T19:19:27.237Z,11.60
2017-09-05T19:21:55.792Z,11.50
2017-09-05T19:24:24.394Z,11.50
2017-09-05T19:26:52.981Z,11.50
2017-09-05T19:29:21.484Z,11.40
2017-09-05T19:31:50.049Z,11.30
2017-09-05T19:34:18.543Z,11.40
2017-09-05T19:36:47.275Z,11.30
2017-09-05T19:39:15.783Z,11.30
2017-09-05T19:41:44.385Z,11.30
2017-09-05T19:44:12.943Z,11.30
2017-09-05T19:46:41.363Z,11.20
2017-09-05T19:49:09.908Z,11.20
2017-09-05T19:51:38.407Z,11.20
2017-09-05T19:54:06.934Z,11.20
2017-09-05T19:56:35.459Z,11.20
2017-09-05T19:59:03.925Z,11.20
2017-09-05T20:01:32.509Z,11.20
2017-09-05T20:04:01.011Z,11.20
2017-09-05T20:06:29.560Z,11.10
2017-09-05T20:08:58.118Z,11.10
2017-09-05T20:11:26.630Z,11.10
2017-09-05T20:13:55.134Z,11.10
2017-09-05T20:16:23.731Z,11.10
2017-09-05T20:18:52.235Z,11.10
2017-09-05T20:21:21.101Z,11.20
2017-09-05T20:23:49.670Z,11.20
2017-09-05T20:26:18.263Z,11.10
2017-09-05T20:28:47.956Z,11.10
2017-09-05T20:31:17.664Z,11.00
2017-09-05T20:33:48.714Z,11.00
2017-09-05T20:36:17.322Z,11.00
2017-09-05T20:38:45.846Z,11.00
2017-09-05T20:41:14.346Z,11.00
2017-09-05T20:43:42.874Z,11.00
2017-09-05T20:46:11.409Z,11.00
2017-09-05T20:48:39.744Z,10.90
2017-09-05T20:51:08.299Z,10.80
2017-09-05T20:53:37.380Z,10.80
2017-09-05T20:56:06.034Z,10.80
2017-09-05T20:58:34.846Z,10.70
2017-09-05T21:01:03.611Z,10.70
2017-09-05T21:03:32.323Z,10.70
2017-09-05T21:06:02.271Z,10.70
2017-09-05T21:08:33.056Z,10.70
2017-09-05T21:11:03.499Z,10.70
2017-09-05T21:13:32.404Z,10.70
2017-09-05T21:16:07.191Z,10.80
2017-09-05T21:18:40.352Z,10.70
2017-09-05T21:21:08.926Z,10.70
2017-09-05T21:23:37.521Z,10.70
2017-09-05T21:26:06.059Z,10.70
2017-09-05T21:28:34.626Z,10.80
2017-09-05T21:31:03.388Z,10.80
2017-09-05T21:33:31.922Z,10.80
2017-09-05T21:36:00.494Z,10.80
2017-09-05T21:38:28.987Z,10.80
2017-09-05T21:40:57.587Z,10.80
2017-09-05T21:43:26.175Z,10.90
2017-09-05T21:45:54.713Z,10.70
2017-09-05T21:48:23.339Z,10.70
2017-09-05T21:50:51.884Z,10.70
2017-09-05T21:53:20.363Z,10.60
2017-09-05T21:55:48.966Z,10.60
2017-09-05T21:58:17.564Z,10.60
2017-09-05T22:00:46.149Z,10.50
2017-09-05T22:03:14.702Z,10.40
2017-09-05T22:05:43.238Z,10.40
2017-09-05T22:08:11.742Z,10.50
2017-09-05T22:10:40.299Z,10.50
2017-09-05T22:13:08.866Z,10.50
2017-09-05T22:15:37.446Z,10.40
2017-09-05T22:18:05.735Z,10.40
2017-09-05T22:20:39.998Z,10.40
2017-09-05T22:23:08.634Z,10.40
2017-09-05T22:25:42.679Z,10.40
2017-09-05T22:28:16.726Z,10.40
2017-09-05T22:30:45.575Z,10.40
2017-09-05T22:33:14.148Z,10.30
2017-09-05T22:35:43.219Z,10.30
2017-09-05T22:38:11.858Z,10.40
2017-09-05T22:40:40.494Z,10.30
2017-09-05T22:43:08.990Z,10.30
2017-09-05T22:45:37.537Z,10.20
2017-09-05T22:48:06.311Z,10.20
2017-09-05T22:50:34.886Z,10.20
2017-09-05T22:53:03.427Z,10.20
2017-09-05T22:55:33.030Z,10.20
2017-09-05T22:58:01.562Z,10.20
2017-09-05T23:00:30.086Z,10.20
2017-09-05T23:02:59.108Z,10.20
2017-09-05T23:05:27.899Z,10.30
2017-09-05T23:07:56.763Z,10.30
2017-09-05T23:10:25.373Z,10.30
2017-09-05T23:12:54.075Z,10.30
2017-09-05T23:15:23.583Z,10.20
2017-09-05T23:17:52.434Z,10.20
2017-09-05T23:20:21.037Z,10.20
2017-09-05T23:22:49.988Z,10.20
2017-09-05T23:25:18.815Z,10.20
2017-09-05T23:27:47.672Z,10.20
2017-09-05T23:30:16.581Z,10.30
2017-09-05T23:32:45.398Z,10.20
2017-09-05T23:35:14.328Z,10.20
2017-09-05T23:37:43.230Z,10.10
2017-09-05T23:40:12.570Z,10.10
2017-09-05T23:42:41.455Z,10.10
2017-09-05T23:45:10.279Z,10.10
2017-09-05T23:47:39.914Z,10.10
2017-09-05T23:50:08.498Z,10.10
2017-09-05T23:52:37.501Z,10.10
2017-09-05T23:55:06.170Z,10.10
2017-09-05T23:57:34.883Z,10.10
